Shady Point, Oklahoma
Current Conditions -  °F | °C
As of 10:35 AM on Wednesday 22 Oct 2014 (Local Time) from KRKR Reporting Station
Clear Clear  
Wind Chill: 62°   Ceiling: Unl
Heat Index: 62°   Visibility: 10mi
Dew Point: 57°   Wind: 0mph
Humidity: 84%   Direction: NA
Pressure: 30.21"   Gusts: NA
Location:  35.13°N, 94.66°W
Report Text: KRKR 221535Z AUTO 00000KT 10SM CLR 17/14 A3021 RMK AO2 T01680140
Loading
Personal Weather Stations






























Interactive Weather Map
Tropical Storm Tracking
New forecast layout! Learn more

10-Day Weather Forecast

Advertisements
Track Severe Weather on mobile